Time;durP1;ratioP1;P1;durP2;ratioP2;P2;SDS_P1;SDS_P2;PMS_P1;PMS_P2;Temp;Humidity;BMP_temperature;BMP_pressure;BME280_temperature;BME280_humidity;BME280_pressure;Samples;Min_cycle;Max_cycle;Signal;HPM_P1;HPM_P2
2021/06/26 00:00:01;;;;;;;17.33;13.68;;;17.10;99.90;;;;;;12386748;28;20090;-39
2021/06/26 00:06:03;;;;;;;22.42;13.48;;;17.00;99.90;;;;;;12397970;28;20120;-39
2021/06/26 00:12:06;;;;;;;23.05;15.23;;;16.60;99.90;;;;;;12376103;28;20045;-40
2021/06/26 00:18:08;;;;;;;17.93;14.47;;;16.40;99.90;;;;;;12390512;28;20417;-41
2021/06/26 00:24:10;;;;;;;18.05;14.38;;;16.30;99.90;;;;;;12389246;28;20168;-41
2021/06/26 00:30:13;;;;;;;19.27;14.63;;;16.10;99.90;;;;;;12389989;28;20058;-42
2021/06/26 00:36:15;;;;;;;20.65;15.18;;;15.90;99.90;;;;;;12385411;28;20141;-42
2021/06/26 00:42:16;;;;;;;20.80;15.77;;;15.80;99.90;;;;;;12389477;28;20453;-41
2021/06/26 00:48:18;;;;;;;19.35;15.77;;;15.70;99.90;;;;;;12386383;28;20066;-39
2021/06/26 00:54:20;;;;;;;21.30;15.95;;;15.70;99.90;;;;;;12391890;28;20453;-44
2021/06/26 01:00:23;;;;;;;24.63;16.58;;;15.60;99.90;;;;;;12388352;28;20506;-39
2021/06/26 01:06:25;;;;;;;24.67;16.92;;;15.70;99.90;;;;;;12387370;28;20168;-40
2021/06/26 01:12:27;;;;;;;24.42;17.98;;;15.70;99.90;;;;;;12390002;28;20050;-39
2021/06/26 01:18:29;;;;;;;23.42;18.33;;;15.60;99.90;;;;;;12395154;28;20136;-39
2021/06/26 01:24:31;;;;;;;22.35;16.60;;;15.80;99.90;;;;;;12395406;28;20073;-39
2021/06/26 01:30:35;;;;;;;27.25;18.40;;;15.90;99.90;;;;;;12395098;28;20050;-39
2021/06/26 01:36:37;;;;;;;26.92;17.92;;;15.90;99.90;;;;;;12388128;28;20141;-40
2021/06/26 01:42:39;;;;;;;25.83;17.60;;;16.00;99.90;;;;;;12388947;28;20058;-39
2021/06/26 01:48:41;;;;;;;24.08;17.73;;;15.80;99.90;;;;;;12391715;28;20109;-40
2021/06/26 01:54:43;;;;;;;26.85;18.83;;;15.70;99.90;;;;;;12391835;28;20052;-40
2021/06/26 02:00:45;;;;;;;26.10;19.20;;;15.60;99.90;;;;;;12384610;28;20141;-40
2021/06/26 02:06:46;;;;;;;31.40;20.00;;;15.50;99.90;;;;;;12385928;28;20054;-40
2021/06/26 02:12:48;;;;;;;26.13;19.58;;;15.50;99.90;;;;;;12388171;28;20046;-39
2021/06/26 02:18:50;;;;;;;27.85;20.58;;;15.60;99.90;;;;;;12378310;28;20054;-39
2021/06/26 02:24:52;;;;;;;24.80;17.98;;;15.70;99.90;;;;;;12392192;28;20092;-42
2021/06/26 02:30:54;;;;;;;26.55;19.95;;;15.50;99.90;;;;;;12384588;28;20050;-39
2021/06/26 02:36:56;;;;;;;26.33;18.50;;;15.40;99.90;;;;;;12382879;28;20058;-39
2021/06/26 02:42:58;;;;;;;28.45;18.60;;;15.50;99.90;;;;;;12378557;28;20058;-39
2021/06/26 02:49:00;;;;;;;27.30;18.95;;;15.50;99.90;;;;;;12389903;28;20064;-39
2021/06/26 02:55:02;;;;;;;27.08;19.52;;;15.30;99.90;;;;;;12390238;28;20058;-39
2021/06/26 03:01:04;;;;;;;26.85;19.25;;;15.20;99.90;;;;;;12392231;28;20104;-40
2021/06/26 03:07:06;;;;;;;24.80;18.73;;;15.20;99.90;;;;;;12390441;28;20101;-38
2021/06/26 03:13:08;;;;;;;30.25;18.33;;;15.30;99.90;;;;;;12388242;28;20054;-39
2021/06/26 03:19:10;;;;;;;31.80;19.27;;;15.30;99.90;;;;;;12386043;28;20173;-40
2021/06/26 03:25:14;;;;;;;27.70;20.63;;;15.20;99.90;;;;;;12382295;28;20050;-39
2021/06/26 03:31:16;;;;;;;29.27;20.20;;;14.90;99.90;;;;;;12378701;28;20505;-39
2021/06/26 03:37:17;;;;;;;32.75;20.77;;;14.90;99.90;;;;;;12388588;28;21014;-42
2021/06/26 03:43:20;;;;;;;29.42;20.02;;;14.80;99.90;;;;;;12382613;28;20050;-39
2021/06/26 03:49:22;;;;;;;29.88;19.33;;;14.90;99.90;;;;;;12384199;28;20049;-40
2021/06/26 03:55:23;;;;;;;29.10;19.58;;;14.80;99.90;;;;;;12380053;28;20045;-40
2021/06/26 04:01:25;;;;;;;28.65;17.92;;;14.80;99.90;;;;;;12382877;28;20049;-39
2021/06/26 04:07:27;;;;;;;31.58;19.08;;;14.70;99.90;;;;;;12382486;28;20055;-39
2021/06/26 04:13:29;;;;;;;32.17;19.75;;;14.60;99.90;;;;;;12375021;28;20054;-39
2021/06/26 04:19:34;;;;;;;30.13;21.25;;;14.40;99.90;;;;;;12384220;28;20060;-39
2021/06/26 04:25:37;;;;;;;26.83;20.73;;;14.50;99.90;;;;;;12385522;28;20117;-39
2021/06/26 04:31:39;;;;;;;30.35;20.13;;;14.80;99.90;;;;;;12379932;28;20043;-40
2021/06/26 04:37:41;;;;;;;30.27;21.75;;;15.00;99.90;;;;;;12384706;28;20528;-39
2021/06/26 04:43:43;;;;;;;26.92;20.35;;;15.00;99.90;;;;;;12377495;28;20050;-40
2021/06/26 04:49:45;;;;;;;29.60;21.55;;;15.20;99.90;;;;;;12389388;28;20119;-41
2021/06/26 04:55:53;;;;;;;29.55;21.42;;;15.40;99.90;;;;;;12392328;28;20053;-39
2021/06/26 05:01:55;;;;;;;33.05;22.77;;;15.50;99.90;;;;;;12388995;28;20058;-39
2021/06/26 05:07:57;;;;;;;34.97;23.77;;;15.60;99.90;;;;;;12383628;28;20056;-42
2021/06/26 05:13:59;;;;;;;33.33;22.20;;;15.60;99.90;;;;;;12391474;28;20061;-39
2021/06/26 05:20:00;;;;;;;39.45;24.77;;;15.70;99.90;;;;;;12390249;28;20052;-38
2021/06/26 05:26:03;;;;;;;38.20;25.25;;;15.90;99.90;;;;;;12383452;28;20061;-42
2021/06/26 05:32:06;;;;;;;33.53;25.15;;;16.20;99.90;;;;;;12388268;28;20145;-39
2021/06/26 05:38:07;;;;;;;31.98;24.08;;;16.40;99.90;;;;;;12387564;28;20084;-40
2021/06/26 05:44:09;;;;;;;30.58;24.15;;;16.70;99.90;;;;;;12386811;28;20064;-42
2021/06/26 05:50:11;;;;;;;35.67;24.08;;;16.90;99.90;;;;;;12380651;28;20103;-39
2021/06/26 05:56:17;;;;;;;32.00;24.67;;;17.00;99.90;;;;;;12390812;28;20050;-40
2021/06/26 06:02:19;;;;;;;28.88;23.33;;;17.20;99.90;;;;;;12376881;28;20445;-39
2021/06/26 06:08:21;;;;;;;31.77;23.20;;;17.30;99.90;;;;;;12389237;28;20544;-39
2021/06/26 06:14:23;;;;;;;29.02;22.65;;;17.40;99.90;;;;;;12388653;28;20054;-39
2021/06/26 06:20:25;;;;;;;26.10;21.20;;;17.50;99.90;;;;;;12390370;28;20053;-41
2021/06/26 06:26:27;;;;;;;25.02;19.98;;;17.60;99.90;;;;;;12387947;28;20119;-40
2021/06/26 06:32:29;;;;;;;28.00;21.00;;;17.70;99.90;;;;;;12374422;28;20164;-39
2021/06/26 06:38:31;;;;;;;23.08;18.17;;;17.90;99.90;;;;;;12377002;28;20058;-41
2021/06/26 06:44:33;;;;;;;29.77;23.25;;;17.90;99.90;;;;;;12387077;28;20088;-40
2021/06/26 06:50:34;;;;;;;26.35;21.77;;;18.00;99.90;;;;;;12389188;28;20046;-40
2021/06/26 06:56:36;;;;;;;28.80;20.40;;;18.10;99.90;;;;;;12394909;28;20924;-41
2021/06/26 07:02:39;;;;;;;28.90;21.80;;;18.20;99.90;;;;;;12385432;28;20458;-39
2021/06/26 07:08:41;;;;;;;25.55;18.92;;;18.30;99.90;;;;;;12395191;28;21760;-39
2021/06/26 07:14:43;;;;;;;27.80;21.80;;;18.40;99.90;;;;;;12385616;28;20050;-40
2021/06/26 07:20:45;;;;;;;28.17;21.98;;;18.50;99.90;;;;;;12393161;28;20196;-39
2021/06/26 07:26:47;;;;;;;27.38;21.88;;;18.60;99.90;;;;;;12381814;28;20458;-39
2021/06/26 07:32:51;;;;;;;27.25;19.88;;;18.70;99.90;;;;;;12384742;28;20047;-39
2021/06/26 07:38:53;;;;;;;25.40;20.55;;;18.80;99.90;;;;;;12384593;28;20100;-39
2021/06/26 07:44:54;;;;;;;25.73;19.85;;;18.90;99.90;;;;;;12383862;28;20112;-39
2021/06/26 07:50:57;;;;;;;28.92;21.35;;;18.90;99.90;;;;;;12390742;28;20536;-40
2021/06/26 07:56:59;;;;;;;28.88;21.17;;;19.00;99.90;;;;;;12383940;28;20567;-40
2021/06/26 08:03:01;;;;;;;25.17;19.08;;;19.20;99.90;;;;;;12385121;28;20064;-42
2021/06/26 08:09:04;;;;;;;27.63;21.02;;;19.40;99.90;;;;;;12384316;28;20058;-39
2021/06/26 08:15:07;;;;;;;30.10;21.20;;;19.40;99.90;;;;;;12384064;28;20065;-39
2021/06/26 08:21:09;;;;;;;30.10;20.95;;;19.40;99.90;;;;;;12379972;28;20058;-40
2021/06/26 08:27:10;;;;;;;33.85;22.80;;;19.50;99.90;;;;;;12383430;28;20363;-40
2021/06/26 08:33:12;;;;;;;25.98;20.83;;;19.50;99.90;;;;;;12382091;28;20050;-39
2021/06/26 08:39:15;;;;;;;30.48;21.77;;;19.70;99.90;;;;;;12387319;28;20096;-39
2021/06/26 08:45:19;;;;;;;28.53;22.40;;;19.80;99.90;;;;;;12381751;28;20453;-40
2021/06/26 08:51:21;;;;;;;;;;;19.80;99.90;;;;;;12386793;28;20054;-41
2021/06/26 08:57:34;;;;;;;30.80;22.05;;;19.70;99.90;;;;;;12385832;28;19926;-41
2021/06/26 09:03:36;;;;;;;27.90;20.57;;;19.80;99.90;;;;;;12389077;28;20050;-40
2021/06/26 09:09:38;;;;;;;30.05;22.17;;;19.80;99.90;;;;;;12385013;28;20133;-40
2021/06/26 09:15:40;;;;;;;21.30;16.63;;;19.90;99.90;;;;;;12385187;28;20141;-39
2021/06/26 09:21:43;;;;;;;24.60;19.92;;;20.20;99.90;;;;;;12381043;28;20046;-39
2021/06/26 09:27:45;;;;;;;26.45;20.95;;;20.30;99.90;;;;;;12386221;28;20099;-41
2021/06/26 09:33:58;;;;;;;23.98;19.27;;;20.30;99.90;;;;;;12379927;28;20054;-40
2021/06/26 09:40:01;;;;;;;23.65;18.02;;;20.30;99.90;;;;;;12386294;28;20506;-41
2021/06/26 09:46:23;;;;;;;23.77;18.25;;;20.70;99.90;;;;;;12393439;28;20141;-40
2021/06/26 09:52:25;;;;;;;22.25;17.73;;;21.00;99.90;;;;;;12391353;28;20053;-42
2021/06/26 09:58:29;;;;;;;17.07;14.23;;;21.20;99.90;;;;;;12394607;28;20054;-41
2021/06/26 10:04:32;;;;;;;22.52;16.33;;;21.10;99.90;;;;;;12387680;28;20285;-40
2021/06/26 10:10:34;;;;;;;;;;;21.10;99.90;;;;;;12388260;28;20043;-40
2021/06/26 10:16:40;;;;;;;20.17;13.15;;;21.20;99.90;;;;;;12378982;28;20223;-40
2021/06/26 10:22:48;;;;;;;22.75;14.30;;;21.70;99.90;;;;;;12382667;28;20062;-40
2021/06/26 10:28:54;;;;;;;18.65;14.30;;;21.80;99.90;;;;;;12387142;28;20085;-41
2021/06/26 10:34:58;;;;;;;16.02;12.43;;;22.10;99.90;;;;;;12382478;28;20112;-40
2021/06/26 10:41:00;;;;;;;19.98;14.65;;;22.20;99.90;;;;;;12373237;28;20050;-39
2021/06/26 10:47:02;;;;;;;17.42;12.88;;;22.50;99.90;;;;;;12386033;28;20422;-40
2021/06/26 10:53:05;;;;;;;;;;;22.50;99.90;;;;;;12385406;28;20096;-40
2021/06/26 10:59:19;;;;;;;21.95;13.55;;;22.60;99.90;;;;;;12377462;28;20378;-40
2021/06/26 11:05:28;;;;;;;18.02;13.60;;;22.80;99.90;;;;;;12378330;28;20422;-40
2021/06/26 11:11:34;;;;;;;18.73;13.30;;;22.80;99.90;;;;;;12380013;28;20042;-40
2021/06/26 11:17:45;;;;;;;17.15;13.88;;;22.90;99.90;;;;;;12379002;28;20131;-40
2021/06/26 11:23:51;;;;;;;15.00;11.55;;;22.70;99.90;;;;;;12386545;28;20077;-40
2021/06/26 11:30:06;;;;;;;12.98;10.90;;;22.60;99.90;;;;;;12387200;28;20548;-41
2021/06/26 11:36:12;;;;;;;11.02;9.25;;;22.60;99.90;;;;;;12374676;28;20150;-40
2021/06/26 11:42:17;;;;;;;13.25;10.77;;;22.60;99.90;;;;;;12380151;28;20062;-41
2021/06/26 11:48:20;;;;;;;13.27;10.38;;;22.60;99.90;;;;;;12382754;28;20120;-42
2021/06/26 11:54:23;;;;;;;17.25;11.65;;;23.20;99.90;;;;;;12382440;28;20346;-39
2021/06/26 12:00:24;;;;;;;17.15;12.40;;;23.70;99.90;;;;;;12375906;28;20068;-40
2021/06/26 12:06:34;;;;;;;16.60;12.30;;;23.40;99.90;;;;;;12383210;28;20050;-41
2021/06/26 12:12:40;;;;;;;14.35;12.00;;;23.20;99.90;;;;;;12374342;28;20051;-42
2021/06/26 12:18:50;;;;;;;10.82;9.07;;;23.40;99.90;;;;;;12381689;28;20097;-43
2021/06/26 12:24:53;;;;;;;13.30;9.93;;;23.40;99.90;;;;;;12383358;28;20062;-39
2021/06/26 12:31:01;;;;;;;13.20;9.33;;;23.80;99.90;;;;;;12365583;28;20051;-41
2021/06/26 12:37:03;;;;;;;11.60;8.10;;;24.40;99.90;;;;;;12380152;28;20058;-41
2021/06/26 12:43:12;;;;;;;10.20;8.25;;;24.10;99.90;;;;;;12374541;28;20605;-40
2021/06/26 12:49:22;;;;;;;9.40;7.25;;;24.00;99.90;;;;;;12384233;28;20042;-40
2021/06/26 12:55:24;;;;;;;9.38;6.90;;;23.50;99.90;;;;;;12371758;28;20049;-42
2021/06/26 13:01:35;;;;;;;10.02;6.70;;;24.10;99.90;;;;;;12377974;28;20116;-40
2021/06/26 13:07:37;;;;;;;8.38;6.70;;;24.20;99.90;;;;;;12372413;28;20497;-42
2021/06/26 13:13:39;;;;;;;11.73;7.10;;;24.40;99.90;;;;;;12391456;28;20048;-42
2021/06/26 13:19:41;;;;;;;7.53;6.10;;;24.40;99.90;;;;;;12382555;28;20058;-40
2021/06/26 13:26:03;;;;;;;8.55;6.03;;;24.60;99.90;;;;;;12391432;28;20430;-41
2021/06/26 13:32:06;;;;;;;7.50;5.95;;;24.70;99.90;;;;;;12388199;28;20201;-40
2021/06/26 13:38:07;;;;;;;7.10;5.37;;;24.70;99.90;;;;;;12388217;28;20054;-41
2021/06/26 13:44:09;;;;;;;6.82;5.50;;;24.00;99.90;;;;;;12381831;28;20111;-40
2021/06/26 13:50:11;;;;;;;6.82;5.05;;;24.10;99.90;;;;;;12375260;28;20299;-40
2021/06/26 13:56:13;;;;;;;7.38;5.00;;;24.40;99.90;;;;;;12387303;28;20578;-40
2021/06/26 14:02:15;;;;;;;7.50;5.60;;;24.80;99.90;;;;;;12384349;28;20099;-40
2021/06/26 14:08:17;;;;;;;7.73;4.43;;;25.00;99.90;;;;;;12389698;28;20119;-40
2021/06/26 14:14:19;;;;;;;6.60;4.50;;;25.60;99.90;;;;;;12383704;28;20072;-40
2021/06/26 14:20:21;;;;;;;4.80;3.50;;;24.90;99.90;;;;;;12381663;28;20054;-42
2021/06/26 14:26:23;;;;;;;6.40;4.90;;;25.00;99.90;;;;;;12386034;28;20076;-40
2021/06/26 14:32:24;;;;;;;6.13;3.88;;;25.50;99.90;;;;;;12381478;28;20050;-41
2021/06/26 14:38:28;;;;;;;4.95;3.95;;;25.70;99.90;;;;;;12379562;28;20137;-40
2021/06/26 14:44:29;;;;;;;;;;;25.00;99.90;;;;;;12382781;28;20081;-40
2021/06/26 14:50:31;;;;;;;4.32;3.58;;;25.10;99.90;;;;;;12381674;28;20269;-40
2021/06/26 14:56:34;;;;;;;4.63;3.45;;;25.50;99.90;;;;;;12382931;28;20048;-41
2021/06/26 15:02:36;;;;;;;4.68;4.00;;;25.40;99.90;;;;;;12368309;28;20364;-40
2021/06/26 15:08:38;;;;;;;4.18;2.83;;;24.60;99.90;;;;;;12382549;28;20446;-40
2021/06/26 15:14:40;;;;;;;3.10;2.40;;;24.00;99.90;;;;;;12377050;28;20046;-39
2021/06/26 15:20:42;;;;;;;5.13;4.32;;;23.80;99.90;;;;;;12377588;28;20042;-41
2021/06/26 15:26:44;;;;;;;6.32;5.47;;;23.50;99.90;;;;;;12376261;28;20056;-40
2021/06/26 15:32:45;;;;;;;7.28;4.38;;;23.70;99.90;;;;;;12378653;28;20088;-41
2021/06/26 15:38:47;;;;;;;8.90;4.53;;;24.00;99.90;;;;;;12381163;28;20057;-41
2021/06/26 15:44:49;;;;;;;6.60;4.55;;;24.10;99.90;;;;;;12378972;28;20045;-43
2021/06/26 15:50:52;;;;;;;6.15;4.97;;;24.00;99.90;;;;;;12377774;28;20050;-40
2021/06/26 15:56:55;;;;;;;8.75;5.40;;;24.10;99.90;;;;;;12385300;28;20054;-40
2021/06/26 16:02:57;;;;;;;7.72;5.47;;;24.10;99.90;;;;;;12385363;28;20494;-40
2021/06/26 16:09:00;;;;;;;6.85;5.13;;;24.10;99.90;;;;;;12367880;28;20149;-41
2021/06/26 16:15:02;;;;;;;9.35;5.88;;;23.80;99.90;;;;;;12367797;28;20458;-40
2021/06/26 16:21:06;;;;;;;8.55;6.35;;;23.60;99.90;;;;;;12383700;28;20544;-40
2021/06/26 16:27:09;;;;;;;7.65;5.72;;;23.70;99.90;;;;;;12372939;28;20096;-41
2021/06/26 16:33:11;;;;;;;7.07;5.85;;;23.40;99.90;;;;;;12378285;28;20042;-40
2021/06/26 16:39:13;;;;;;;7.03;6.10;;;23.50;99.90;;;;;;12383920;28;20396;-41
2021/06/26 16:45:15;;;;;;;8.00;5.88;;;23.40;99.90;;;;;;12381222;28;20058;-40
2021/06/26 16:51:17;;;;;;;5.70;5.10;;;23.80;99.90;;;;;;12386945;28;20068;-41
2021/06/26 16:57:19;;;;;;;8.05;5.55;;;24.10;99.90;;;;;;12388204;28;20046;-41
2021/06/26 17:03:21;;;;;;;8.57;5.60;;;23.80;99.90;;;;;;12381039;28;20124;-42
2021/06/26 17:09:23;;;;;;;7.57;5.22;;;24.30;99.90;;;;;;12377355;28;20678;-40
2021/06/26 17:15:25;;;;;;;4.15;3.72;;;24.50;99.90;;;;;;12376971;28;20039;-41
2021/06/26 17:21:26;;;;;;;4.00;3.20;;;24.30;99.90;;;;;;12386620;28;20452;-41
2021/06/26 17:27:28;;;;;;;5.22;3.10;;;24.20;99.90;;;;;;12381497;28;20058;-40
2021/06/26 17:33:30;;;;;;;4.78;2.80;;;24.30;99.90;;;;;;12392125;28;20061;-40
2021/06/26 17:39:32;;;;;;;3.38;2.60;;;24.60;99.90;;;;;;12379969;28;20054;-42
2021/06/26 17:45:34;;;;;;;4.45;2.70;;;24.40;99.90;;;;;;12385145;28;20060;-41
2021/06/26 17:51:37;;;;;;;5.22;2.83;;;24.60;99.90;;;;;;12391881;28;20834;-40
2021/06/26 17:57:39;;;;;;;4.45;2.78;;;24.40;99.90;;;;;;12389077;28;20050;-40
2021/06/26 18:03:41;;;;;;;5.97;4.30;;;24.40;99.90;;;;;;12388268;28;20723;-41
2021/06/26 18:09:43;;;;;;;8.50;4.80;;;23.90;99.90;;;;;;12384467;28;20049;-41
2021/06/26 18:15:46;;;;;;;6.18;5.00;;;23.60;99.90;;;;;;12375439;28;20144;-40
2021/06/26 18:21:48;;;;;;;7.53;4.82;;;23.20;99.90;;;;;;12379198;28;20120;-40
2021/06/26 18:27:53;;;;;;;9.80;4.63;;;22.80;99.90;;;;;;12384490;28;20057;-40
2021/06/26 18:33:55;;;;;;;6.32;5.10;;;22.60;99.90;;;;;;12382134;28;20075;-41
2021/06/26 18:39:57;;;;;;;7.70;5.15;;;22.20;99.90;;;;;;12381959;28;20050;-39
2021/06/26 18:45:59;;;;;;;7.53;5.28;;;22.00;99.90;;;;;;12367865;28;20059;-40
2021/06/26 18:52:02;;;;;;;5.70;4.53;;;21.80;99.90;;;;;;12380680;28;20050;-41
2021/06/26 18:58:03;;;;;;;6.78;4.70;;;21.70;99.90;;;;;;12384023;28;20119;-39
2021/06/26 19:04:05;;;;;;;5.22;4.32;;;21.80;99.90;;;;;;12382308;28;20152;-40
2021/06/26 19:10:13;;;;;;;6.07;4.60;;;21.80;99.90;;;;;;12377999;28;20601;-42
2021/06/26 19:16:15;;;;;;;5.72;4.55;;;21.80;99.90;;;;;;12386887;28;20144;-40
2021/06/26 19:22:17;;;;;;;8.75;5.80;;;21.80;99.90;;;;;;12386583;28;20046;-40
2021/06/26 19:28:22;;;;;;;8.23;5.65;;;21.50;99.90;;;;;;12384498;28;20166;-40
2021/06/26 19:34:23;;;;;;;8.85;5.88;;;21.40;99.90;;;;;;12382338;28;20561;-40
2021/06/26 19:40:25;;;;;;;7.20;6.45;;;21.40;99.90;;;;;;12373918;28;20627;-39
2021/06/26 19:46:27;;;;;;;8.05;6.63;;;21.20;99.90;;;;;;12382936;28;20454;-43
2021/06/26 19:52:29;;;;;;;9.68;8.13;;;21.00;99.90;;;;;;12386358;28;20128;-39
2021/06/26 19:58:31;;;;;;;10.30;8.65;;;20.90;99.90;;;;;;12381656;28;20062;-41
2021/06/26 20:04:36;;;;;;;10.18;9.07;;;20.90;99.90;;;;;;12380452;28;20057;-40
2021/06/26 20:10:38;;;;;;;11.70;8.32;;;20.90;99.90;;;;;;12386602;28;20058;-40
2021/06/26 20:16:40;;;;;;;12.02;8.43;;;20.90;99.90;;;;;;12385579;28;20074;-39
2021/06/26 20:22:42;;;;;;;9.95;6.78;;;20.80;99.90;;;;;;12386186;28;20069;-39
2021/06/26 20:28:43;;;;;;;8.55;7.45;;;20.60;99.90;;;;;;12381715;28;20193;-39
2021/06/26 20:34:45;;;;;;;8.13;6.47;;;20.20;99.90;;;;;;12379967;28;20112;-39
2021/06/26 20:40:47;;;;;;;8.02;6.85;;;20.10;99.90;;;;;;12382796;28;20061;-41
2021/06/26 20:46:49;;;;;;;9.52;7.53;;;20.00;99.90;;;;;;12389425;28;20058;-39
2021/06/26 20:52:56;;;;;;;10.43;8.43;;;19.90;99.90;;;;;;12371315;28;20049;-40
2021/06/26 20:58:57;;;;;;;12.27;8.23;;;19.80;99.90;;;;;;12377214;28;20058;-39
2021/06/26 21:04:59;;;;;;;11.55;9.65;;;19.70;99.90;;;;;;12384140;28;20161;-40
2021/06/26 21:11:01;;;;;;;13.65;8.90;;;19.60;99.90;;;;;;12381029;28;20042;-40
2021/06/26 21:17:03;;;;;;;10.90;9.43;;;19.50;99.90;;;;;;12386785;28;20100;-40
2021/06/26 21:23:05;;;;;;;12.43;9.63;;;19.50;99.90;;;;;;12384497;28;20502;-40
2021/06/26 21:29:07;;;;;;;10.85;9.65;;;19.50;99.90;;;;;;12381717;28;20804;-41
2021/06/26 21:35:10;;;;;;;11.30;9.45;;;19.40;99.90;;;;;;12388541;28;20081;-40
2021/06/26 21:41:11;;;;;;;11.23;10.00;;;19.30;99.90;;;;;;12385360;28;20472;-41
2021/06/26 21:47:13;;;;;;;11.05;9.30;;;19.10;99.90;;;;;;12387679;28;20058;-41
2021/06/26 21:53:29;;;;;;;14.23;10.18;;;19.00;99.90;;;;;;12398920;28;20042;-39
2021/06/26 21:59:31;;;;;;;14.25;10.70;;;19.00;99.90;;;;;;12388008;28;20131;-40
2021/06/26 22:05:33;;;;;;;11.15;9.80;;;18.90;99.90;;;;;;12376260;28;20096;-40
2021/06/26 22:11:36;;;;;;;13.52;10.50;;;18.90;99.90;;;;;;12373561;28;20050;-39
2021/06/26 22:17:43;;;;;;;13.57;11.05;;;18.90;99.90;;;;;;12391317;28;20046;-40
2021/06/26 22:23:45;;;;;;;12.32;10.50;;;18.90;99.90;;;;;;12391217;28;20103;-40
2021/06/26 22:29:48;;;;;;;15.13;11.15;;;18.60;99.90;;;;;;12382880;28;20108;-40
2021/06/26 22:35:49;;;;;;;12.20;10.82;;;18.50;99.90;;;;;;12384532;28;20471;-40
2021/06/26 22:41:52;;;;;;;14.02;10.68;;;18.40;99.90;;;;;;12380992;28;20111;-40
2021/06/26 22:47:54;;;;;;;13.95;10.82;;;18.50;99.90;;;;;;12391861;28;20091;-39
2021/06/26 22:53:56;;;;;;;13.65;10.20;;;18.30;99.90;;;;;;12378573;28;20103;-40
2021/06/26 22:59:58;;;;;;;15.63;12.40;;;18.40;99.90;;;;;;12384118;28;20577;-40
2021/06/26 23:06:00;;;;;;;17.63;13.68;;;18.40;99.90;;;;;;12374398;28;20566;-39
2021/06/26 23:12:02;;;;;;;16.95;13.70;;;18.40;99.90;;;;;;12376019;28;20054;-40
2021/06/26 23:18:04;;;;;;;16.58;14.18;;;18.40;99.90;;;;;;12383206;28;20141;-40
2021/06/26 23:24:07;;;;;;;16.17;14.48;;;18.40;99.90;;;;;;12391791;28;20041;-40
2021/06/26 23:30:09;;;;;;;18.10;15.85;;;18.50;99.90;;;;;;12375854;28;20483;-39
2021/06/26 23:36:11;;;;;;;18.13;14.45;;;18.50;99.90;;;;;;12386638;28;20532;-42
2021/06/26 23:42:13;;;;;;;17.45;15.15;;;18.40;99.90;;;;;;12382667;28;20051;-41
2021/06/26 23:48:15;;;;;;;16.30;14.30;;;18.20;99.90;;;;;;12388720;28;21114;-39
2021/06/26 23:54:17;;;;;;;17.38;14.50;;;18.30;99.90;;;;;;12381976;28;20301;-39
